Relevés stations proches


LFBH - La Rochelle, Charente Maritime
Mise à jour: 23/01/2018 21:30
Couvert
Couvert
 Wind from SO
Vent: SO 17 km/h
Température: 12°C
Point de rosée: 10°C
Humidité: 88%
Baromètre: 1027 hPa
Ciel: Couvert
Visibilité: 6 km
Détails plafond nuageux: Nuageux 366 m
Nuageux 640 m
Couvert 853 m
2018/01/23 21:30 LFBH 232130Z AUTO 23009KT 6000 BKN012 BKN021 OVC028 12/10 Q1027 TEMPO 4000 -DZ
LFBC - Cognac, Charente
Mise à jour: 23/01/2018 21:30
Brume, Partiellement nuageux
Brume, Partiellement nuageux
 Wind from S
Vent: S 2 km/h
Température: 11°C
Point de rosée: 11°C
Humidité: 100%
Baromètre: 1029 hPa
Ciel: Brume
Ciel: Partiellement nuageux
Visibilité: 1 km
2018/01/23 21:30 LFBC 232130Z AUTO 19001KT 1000 R24/1500U BR NSC 11/11 Q1029
 
LFBU - Angoulème, Charente
Mise à jour: 23/01/2018 21:30
Couvert
Couvert
 Wind from S
Vent: S 7 km/h
Température: 11°C
Point de rosée: 10°C
Humidité: 94%
Baromètre: 1029 hPa
Ciel: Couvert
Visibilité: 7 km
Détails plafond nuageux: Peu nuageux 884 m
Couvert 1463 m
2018/01/23 21:30 LFBU 232130Z AUTO 18004KT 7000 FEW029 OVC048 11/10 Q1029
LFRI - La Roche sur Yon, Vendée
Mise à jour: 23/01/2018 21:30
Faible bruine, Brume, Couvert
Faible bruine, Brume, Couvert
 Wind from SSO
Vent: SSO 15 km/h
Température: 11°C
Point de rosée: 11°C
Humidité: 100%
Baromètre: 1026 hPa
Ciel: Faible bruine, Brume
Ciel: Couvert
Visibilité: 5 km
Détails plafond nuageux: Nuageux 152 m
Couvert 305 m
2018/01/23 21:30 LFRI 232130Z AUTO 21008KT 4900 -DZ BR BKN005 OVC010 11/11 Q1026
 
LFBI - Poitiers, Vienne
Mise à jour: 23/01/2018 21:30
Couvert
Couvert
 Wind from SSO
Vent: SSO 19 km/h
Température: 11°C
Point de rosée: 10°C
Humidité: 94%
Baromètre: 1027 hPa
Ciel: Couvert
Visibilité: 10 km
Détails plafond nuageux: Couvert 274 m
2018/01/23 21:30 LFBI 232130Z AUTO 20010KT 9999 OVC009 11/10 Q1027 TEMPO 3000 -DZ
LFRS - Nantes, Loire Atlantique
Mise à jour: 23/01/2018 21:30
Couvert
Couvert
 Wind from SO
Vent: SO 19 km/h
Température: 12°C
Point de rosée: 12°C
Humidité: 100%
Baromètre: 1024 hPa
Ciel: Couvert
Visibilité: 9 km
Détails plafond nuageux: Couvert 152 m
2018/01/23 21:30 LFRS 232130Z AUTO 22010KT 180V260 9000 OVC005 12/12 Q1024 TEMPO 2500 -DZ
 
LFBD - Bordeaux, Gironde
Mise à jour: 23/01/2018 21:30
Couvert
Couvert
 Wind from SO
Vent: SO 6 km/h
Température: 12°C
Point de rosée: 12°C
Humidité: 100%
Baromètre: 1029 hPa
Ciel: Couvert
Visibilité: 6 km
Détails plafond nuageux: Peu nuageux 61 m
Couvert 1585 m
2018/01/23 21:30 LFBD 232130Z AUTO 22003KT 6000 FEW002 OVC052 12/12 Q1029 TEMPO 0600 BCFG BKN002
LFBL - Limoges, Haute Vienne
Mise à jour: 23/01/2018 21:30
Couvert
Couvert
 Wind from S
Vent: S 9 km/h
Température: 9°C
Refroidissement éolien: 7°C
Point de rosée: 9°C
Humidité: 100%
Baromètre: 1028 hPa
Ciel: Couvert
Visibilité: 7 km
Détails plafond nuageux: Couvert 30 m
2018/01/23 21:30 LFBL 232130Z AUTO 18005KT 7000 OVC001 09/09 Q1028 TEMPO 2000 BR BECMG OVC003